Time,TemperatureF,DewpointF,PressureIn,WindDirection,WindDirectionDegrees,WindSpeedMPH,WindSpeedGustMPH,Humidity,HourlyPrecipIn,Conditions,Clouds,dailyrainin,SoftwareType,DateUTC
2013-03-18 00:04:00,24.9,11.0,30.38,North,0,0.0,0.0,55,0.00,,,0.00,WUHU216DAVISWMX,2013-03-18 04:04:00,
2013-03-18 00:09:00,24.7,11.2,30.39,NE,47,0.0,2.0,56,0.00,,,0.00,WUHU216DAVISWMX,2013-03-18 04:09:00,
2013-03-18 00:14:00,24.7,10.8,30.39,NE,47,0.0,2.0,55,0.00,,,0.00,WUHU216DAVISWMX,2013-03-18 04:14:00,
2013-03-18 00:19:00,24.5,9.8,30.39,NE,47,0.0,0.0,53,0.00,,,0.00,WUHU216DAVISWMX,2013-03-18 04:19:00,
2013-03-18 00:25:00,24.5,9.8,30.39,NE,47,0.0,0.0,53,0.00,,,0.00,WUHU216DAVISWMX,2013-03-18 04:25:00,
2013-03-18 00:30:00,24.4,10.5,30.39,NE,47,0.0,0.0,55,0.00,,,0.00,WUHU216DAVISWMX,2013-03-18 04:30:00,
2013-03-18 00:35:00,24.2,9.9,30.40,NE,47,1.0,2.0,54,0.00,,,0.00,WUHU216DAVISWMX,2013-03-18 04:35:00,
2013-03-18 00:40:00,23.9,8.8,30.40,NE,37,1.0,4.0,52,0.00,,,0.00,WUHU216DAVISWMX,2013-03-18 04:40:00,
2013-03-18 00:45:00,23.8,7.8,30.41,North,10,1.0,4.0,50,0.00,,,0.00,WUHU216DAVISWMX,2013-03-18 04:45:00,
2013-03-18 00:50:00,23.6,6.7,30.41,NE,36,3.0,7.0,48,0.00,,,0.00,WUHU216DAVISWMX,2013-03-18 04:50:00,
2013-03-18 00:55:00,23.2,6.3,30.41,North,9,1.0,7.0,48,0.00,,,0.00,WUHU216DAVISWMX,2013-03-18 04:55:00,
2013-03-18 01:00:00,23.1,6.7,30.41,NE,47,1.0,3.0,49,0.00,,,0.00,WUHU216DAVISWMX,2013-03-18 05:00:00,
2013-03-18 01:05:00,23.1,7.1,30.42,NE,47,1.0,2.0,50,0.00,,,0.00,WUHU216DAVISWMX,2013-03-18 05:05:00,
2013-03-18 01:10:00,23.0,6.6,30.42,NE,47,2.0,2.0,49,0.00,,,0.00,WUHU216DAVISWMX,2013-03-18 05:10:00,
2013-03-18 01:15:00,22.8,6.9,30.42,NE,47,1.0,2.0,50,0.00,,,0.00,WUHU216DAVISWMX,2013-03-18 05:15:00,
2013-03-18 01:20:00,22.7,6.8,30.42,NE,47,0.0,2.0,50,0.00,,,0.00,WUHU216DAVISWMX,2013-03-18 05:20:00,
2013-03-18 01:25:00,22.5,6.6,30.42,NE,46,1.0,2.0,50,0.00,,,0.00,WUHU216DAVISWMX,2013-03-18 05:25:00,
2013-03-18 01:30:00,22.5,6.6,30.42,NE,47,0.0,1.0,50,0.00,,,0.00,WUHU216DAVISWMX,2013-03-18 05:30:00,
2013-03-18 01:35:00,22.4,6.5,30.43,NE,47,1.0,1.0,50,0.00,,,0.00,WUHU216DAVISWMX,2013-03-18 05:35:00,
2013-03-18 01:40:00,22.3,7.3,30.43,NE,47,0.0,2.0,52,0.00,,,0.00,WUHU216DAVISWMX,2013-03-18 05:40:00,
2013-03-18 01:45:00,22.4,7.8,30.43,NE,47,0.0,2.0,53,0.00,,,0.00,WUHU216DAVISWMX,2013-03-18 05:45:00,
2013-03-18 01:50:00,22.4,6.0,30.43,NNE,33,2.0,2.0,49,0.00,,,0.00,WUHU216DAVISWMX,2013-03-18 05:50:00,
2013-03-18 01:55:00,22.1,5.8,30.43,NNE,33,1.0,3.0,49,0.00,,,0.00,WUHU216DAVISWMX,2013-03-18 05:55:00,
2013-03-18 02:00:00,22.0,6.6,30.43,NNE,33,3.0,3.0,51,0.00,,,0.00,WUHU216DAVISWMX,2013-03-18 06:00:00,
2013-03-18 02:05:00,21.9,6.0,30.44,NNE,33,0.0,3.0,50,0.00,,,0.00,WUHU216DAVISWMX,2013-03-18 06:05:00,
2013-03-18 02:10:00,22.0,6.1,30.44,NNE,33,1.0,3.0,50,0.00,,,0.00,WUHU216DAVISWMX,2013-03-18 06:10:00,
2013-03-18 02:15:00,21.9,7.3,30.44,NNE,33,0.0,2.0,53,0.00,,,0.00,WUHU216DAVISWMX,2013-03-18 06:15:00,
2013-03-18 02:20:00,22.0,7.4,30.45,NNE,33,0.0,1.0,53,0.00,,,0.00,WUHU216DAVISWMX,2013-03-18 06:20:00,
2013-03-18 02:25:00,21.9,7.3,30.45,NNE,33,0.0,1.0,53,0.00,,,0.00,WUHU216DAVISWMX,2013-03-18 06:25:00,
2013-03-18 02:30:00,21.8,7.7,30.45,NNE,33,0.0,1.0,54,0.00,,,0.00,WUHU216DAVISWMX,2013-03-18 06:30:00,
2013-03-18 02:35:00,21.7,8.0,30.45,NNE,33,1.0,1.0,55,0.00,,,0.00,WUHU216DAVISWMX,2013-03-18 06:35:00,
2013-03-18 02:40:00,21.6,8.3,30.45,NNE,33,0.0,1.0,56,0.00,,,0.00,WUHU216DAVISWMX,2013-03-18 06:40:00,
2013-03-18 02:45:00,21.4,7.7,30.45,NNE,33,0.0,0.0,55,0.00,,,0.00,WUHU216DAVISWMX,2013-03-18 06:45:00,
2013-03-18 02:50:00,21.3,8.4,30.45,NE,34,0.0,0.0,57,0.00,,,0.00,WUHU216DAVISWMX,2013-03-18 06:50:00,
2013-03-18 02:55:00,21.2,7.9,30.45,NE,34,0.0,0.0,56,0.00,,,0.00,WUHU216DAVISWMX,2013-03-18 06:55:00,
2013-03-18 03:00:00,21.1,7.8,30.46,NNE,33,0.0,0.0,56,0.00,,,0.00,WUHU216DAVISWMX,2013-03-18 07:00:00,
2013-03-18 03:05:00,20.9,7.3,30.46,NNE,33,0.0,0.0,55,0.00,,,0.00,WUHU216DAVISWMX,2013-03-18 07:05:00,
2013-03-18 03:10:00,20.7,8.3,30.46,NNE,33,0.0,0.0,58,0.00,,,0.00,WUHU216DAVISWMX,2013-03-18 07:10:00,
2013-03-18 03:15:00,20.7,8.7,30.46,NNE,33,0.0,0.0,59,0.00,,,0.00,WUHU216DAVISWMX,2013-03-18 07:15:00,
2013-03-18 03:20:00,20.5,8.5,30.46,NNE,33,0.0,0.0,59,0.00,,,0.00,WUHU216DAVISWMX,2013-03-18 07:20:00,
2013-03-18 03:25:00,20.4,9.1,30.47,NNE,33,0.0,0.0,61,0.00,,,0.00,WUHU216DAVISWMX,2013-03-18 07:25:00,
2013-03-18 03:30:00,20.2,8.9,30.47,NNE,33,0.0,0.0,61,0.00,,,0.00,WUHU216DAVISWMX,2013-03-18 07:30:00,
2013-03-18 03:35:00,20.0,9.1,30.46,NNE,33,0.0,0.0,62,0.00,,,0.00,WUHU216DAVISWMX,2013-03-18 07:35:00,
2013-03-18 03:40:00,19.8,8.9,30.47,NNE,33,0.0,0.0,62,0.00,,,0.00,WUHU216DAVISWMX,2013-03-18 07:40:00,
2013-03-18 03:45:00,19.7,8.1,30.46,NNE,33,0.0,0.0,60,0.00,,,0.00,WUHU216DAVISWMX,2013-03-18 07:45:00,
2013-03-18 03:50:00,19.5,7.9,30.46,NNE,33,0.0,2.0,60,0.00,,,0.00,WUHU216DAVISWMX,2013-03-18 07:50:00,
2013-03-18 03:55:00,19.4,7.8,30.46,NNE,33,0.0,2.0,60,0.00,,,0.00,WUHU216DAVISWMX,2013-03-18 07:55:00,
2013-03-18 04:00:00,19.2,8.0,30.46,NNE,33,1.0,1.0,61,0.00,,,0.00,WUHU216DAVISWMX,2013-03-18 08:00:00,
2013-03-18 04:05:00,19.1,8.6,30.46,NNE,33,0.0,2.0,63,0.00,,,0.00,WUHU216DAVISWMX,2013-03-18 08:05:00,
2013-03-18 04:10:00,19.0,8.2,30.46,NNE,33,0.0,2.0,62,0.00,,,0.00,WUHU216DAVISWMX,2013-03-18 08:10:00,
2013-03-18 04:15:00,19.0,7.8,30.46,NNE,33,0.0,0.0,61,0.00,,,0.00,WUHU216DAVISWMX,2013-03-18 08:15:00,
2013-03-18 04:20:00,18.9,8.4,30.46,NNE,33,0.0,0.0,63,0.00,,,0.00,WUHU216DAVISWMX,2013-03-18 08:20:00,
2013-03-18 04:25:00,18.8,8.3,30.47,NNE,33,0.0,0.0,63,0.00,,,0.00,WUHU216DAVISWMX,2013-03-18 08:25:00,
2013-03-18 04:30:00,18.5,7.7,30.46,NNE,33,0.0,0.0,62,0.00,,,0.00,WUHU216DAVISWMX,2013-03-18 08:30:00,
2013-03-18 04:35:00,18.6,8.1,30.47,NNE,33,0.0,0.0,63,0.00,,,0.00,WUHU216DAVISWMX,2013-03-18 08:35:00,
2013-03-18 04:40:00,18.7,8.9,30.47,NNE,33,0.0,0.0,65,0.00,,,0.00,WUHU216DAVISWMX,2013-03-18 08:40:00,
2013-03-18 04:45:00,18.9,9.1,30.47,NNE,33,0.0,0.0,65,0.00,,,0.00,WUHU216DAVISWMX,2013-03-18 08:45:00,
2013-03-18 04:50:00,18.8,8.3,30.47,NNE,33,0.0,0.0,63,0.00,,,0.00,WUHU216DAVISWMX,2013-03-18 08:50:00,
2013-03-18 04:55:00,18.4,7.9,30.47,NNE,33,0.0,0.0,63,0.00,,,0.00,WUHU216DAVISWMX,2013-03-18 08:55:00,
2013-03-18 05:00:00,18.2,8.1,30.48,NNE,33,0.0,0.0,64,0.00,,,0.00,WUHU216DAVISWMX,2013-03-18 09:00:00,
2013-03-18 05:05:00,17.9,7.8,30.47,NNE,33,0.0,0.0,64,0.00,,,0.00,WUHU216DAVISWMX,2013-03-18 09:05:00,
2013-03-18 05:10:00,17.8,8.1,30.48,NNE,33,0.0,0.0,65,0.00,,,0.00,WUHU216DAVISWMX,2013-03-18 09:10:00,
2013-03-18 05:15:00,17.5,7.8,30.48,NNE,33,0.0,0.0,65,0.00,,,0.00,WUHU216DAVISWMX,2013-03-18 09:15:00,
2013-03-18 05:20:00,17.5,8.1,30.48,NNE,33,0.0,0.0,66,0.00,,,0.00,WUHU216DAVISWMX,2013-03-18 09:20:00,
2013-03-18 05:25:00,17.3,7.9,30.48,NNE,33,0.0,0.0,66,0.00,,,0.00,WUHU216DAVISWMX,2013-03-18 09:25:00,
2013-03-18 05:30:00,17.2,8.2,30.49,NNE,33,0.0,0.0,67,0.00,,,0.00,WUHU216DAVISWMX,2013-03-18 09:30:00,
2013-03-18 05:35:00,17.2,8.5,30.49,NNE,33,0.0,0.0,68,0.00,,,0.00,WUHU216DAVISWMX,2013-03-18 09:35:00,
2013-03-18 05:40:00,17.3,8.6,30.50,NNE,33,0.0,0.0,68,0.00,,,0.00,WUHU216DAVISWMX,2013-03-18 09:40:00,
2013-03-18 05:45:00,17.0,8.0,30.50,NNE,33,0.0,0.0,67,0.00,,,0.00,WUHU216DAVISWMX,2013-03-18 09:45:00,
2013-03-18 05:50:00,16.7,8.0,30.50,NNE,33,0.0,0.0,68,0.00,,,0.00,WUHU216DAVISWMX,2013-03-18 09:50:00,
2013-03-18 05:55:00,17.0,8.6,30.50,NNE,33,0.0,0.0,69,0.00,,,0.00,WUHU216DAVISWMX,2013-03-18 09:55:00,
2013-03-18 06:00:00,16.8,8.1,30.50,NNE,33,0.0,0.0,68,0.00,,,0.00,WUHU216DAVISWMX,2013-03-18 10:00:00,
2013-03-18 06:05:00,16.6,7.9,30.50,NNE,33,0.0,0.0,68,0.00,,,0.00,WUHU216DAVISWMX,2013-03-18 10:05:00,
2013-03-18 06:10:00,16.5,7.8,30.50,NNE,33,0.0,0.0,68,0.00,,,0.00,WUHU216DAVISWMX,2013-03-18 10:10:00,
2013-03-18 06:15:00,16.4,8.1,30.51,NNE,33,0.0,0.0,69,0.00,,,0.00,WUHU216DAVISWMX,2013-03-18 10:15:00,
2013-03-18 06:20:00,16.3,8.3,30.51,NNE,33,0.0,0.0,70,0.00,,,0.00,WUHU216DAVISWMX,2013-03-18 10:20:00,
2013-03-18 06:25:00,16.1,8.1,30.51,NNE,33,0.0,0.0,70,0.00,,,0.00,WUHU216DAVISWMX,2013-03-18 10:25:00,
2013-03-18 06:30:00,16.1,8.4,30.51,NE,34,0.0,0.0,71,0.00,,,0.00,WUHU216DAVISWMX,2013-03-18 10:30:00,
2013-03-18 06:35:00,16.1,8.4,30.51,NNE,33,0.0,0.0,71,0.00,,,0.00,WUHU216DAVISWMX,2013-03-18 10:35:00,
2013-03-18 06:40:00,16.0,8.6,30.52,NNE,33,0.0,0.0,72,0.00,,,0.00,WUHU216DAVISWMX,2013-03-18 10:40:00,
2013-03-18 06:45:00,16.2,8.5,30.52,NE,34,0.0,0.0,71,0.00,,,0.00,WUHU216DAVISWMX,2013-03-18 10:45:00,
2013-03-18 06:50:00,15.9,8.5,30.52,NNE,33,0.0,0.0,72,0.00,,,0.00,WUHU216DAVISWMX,2013-03-18 10:50:00,
2013-03-18 06:55:00,15.8,8.4,30.52,NNE,33,0.0,0.0,72,0.00,,,0.00,WUHU216DAVISWMX,2013-03-18 10:55:00,
2013-03-18 07:00:00,15.9,8.2,30.52,NNE,33,0.0,0.0,71,0.00,,,0.00,WUHU216DAVISWMX,2013-03-18 11:00:00,
2013-03-18 07:05:00,15.8,8.1,30.51,NNE,33,0.0,0.0,71,0.00,,,0.00,WUHU216DAVISWMX,2013-03-18 11:05:00,
2013-03-18 07:10:00,15.8,8.4,30.51,NNE,33,0.0,0.0,72,0.00,,,0.00,WUHU216DAVISWMX,2013-03-18 11:10:00,
2013-03-18 07:15:00,15.9,8.5,30.51,NNE,33,0.0,0.0,72,0.00,,,0.00,WUHU216DAVISWMX,2013-03-18 11:15:00,
2013-03-18 07:20:00,15.8,8.4,30.52,NNE,33,0.0,0.0,72,0.00,,,0.00,WUHU216DAVISWMX,2013-03-18 11:20:00,
2013-03-18 07:25:00,15.7,8.3,30.51,NNE,33,1.0,1.0,72,0.00,,,0.00,WUHU216DAVISWMX,2013-03-18 11:25:00,
2013-03-18 07:30:00,15.7,8.6,30.51,NNE,33,0.0,1.0,73,0.00,,,0.00,WUHU216DAVISWMX,2013-03-18 11:30:00,
2013-03-18 07:35:00,16.0,8.9,30.52,NNE,33,0.0,1.0,73,0.00,,,0.00,WUHU216DAVISWMX,2013-03-18 11:35:00,
2013-03-18 07:40:00,16.1,8.7,30.52,NNE,33,0.0,0.0,72,0.00,,,0.00,WUHU216DAVISWMX,2013-03-18 11:40:00,
2013-03-18 07:45:00,16.1,8.7,30.51,NNE,33,0.0,2.0,72,0.00,,,0.00,WUHU216DAVISWMX,2013-03-18 11:45:00,
2013-03-18 07:50:00,16.4,9.0,30.52,NNE,33,1.0,2.0,72,0.00,,,0.00,WUHU216DAVISWMX,2013-03-18 11:50:00,
2013-03-18 07:55:00,16.6,9.2,30.52,NNE,33,0.0,2.0,72,0.00,,,0.00,WUHU216DAVISWMX,2013-03-18 11:55:00,
2013-03-18 08:00:00,16.8,9.1,30.52,NNE,33,0.0,1.0,71,0.00,,,0.00,WUHU216DAVISWMX,2013-03-18 12:00:00,
2013-03-18 08:05:00,17.2,9.1,30.52,NNE,33,0.0,0.0,70,0.00,,,0.00,WUHU216DAVISWMX,2013-03-18 12:05:00,
2013-03-18 08:10:00,17.4,9.0,30.52,NNE,33,0.0,1.0,69,0.00,,,0.00,WUHU216DAVISWMX,2013-03-18 12:10:00,
2013-03-18 08:15:00,17.7,8.7,30.52,NE,34,0.0,2.0,67,0.00,,,0.00,WUHU216DAVISWMX,2013-03-18 12:15:00,
2013-03-18 08:20:00,17.9,8.5,30.52,NNE,33,0.0,2.0,66,0.00,,,0.00,WUHU216DAVISWMX,2013-03-18 12:20:00,
2013-03-18 08:25:00,18.3,7.9,30.52,NNE,33,2.0,2.0,63,0.00,,,0.00,WUHU216DAVISWMX,2013-03-18 12:25:00,
2013-03-18 08:30:00,18.7,7.9,30.52,NNE,33,1.0,2.0,62,0.00,,,0.00,WUHU216DAVISWMX,2013-03-18 12:30:00,
2013-03-18 08:35:00,19.2,6.9,30.52,NNE,33,1.0,2.0,58,0.00,,,0.00,WUHU216DAVISWMX,2013-03-18 12:35:00,
2013-03-18 08:40:00,19.6,6.8,30.52,NNE,33,2.0,3.0,57,0.00,,,0.00,WUHU216DAVISWMX,2013-03-18 12:40:00,
2013-03-18 08:45:00,20.1,6.5,30.52,NNE,33,0.0,3.0,55,0.00,,,0.00,WUHU216DAVISWMX,2013-03-18 12:45:00,
2013-03-18 08:50:00,20.6,7.4,30.52,NNE,33,0.0,3.0,56,0.00,,,0.00,WUHU216DAVISWMX,2013-03-18 12:50:00,
2013-03-18 08:55:00,21.2,7.9,30.52,NNE,33,0.0,1.0,56,0.00,,,0.00,WUHU216DAVISWMX,2013-03-18 12:55:00,
2013-03-18 09:00:00,21.7,7.6,30.52,North,4,2.0,2.0,54,0.00,,,0.00,WUHU216DAVISWMX,2013-03-18 13:00:00,
2013-03-18 09:05:00,21.9,6.5,30.51,North,4,1.0,2.0,51,0.00,,,0.00,WUHU216DAVISWMX,2013-03-18 13:05:00,
2013-03-18 09:10:00,22.4,6.5,30.51,North,8,2.0,4.0,50,0.00,,,0.00,WUHU216DAVISWMX,2013-03-18 13:10:00,
2013-03-18 09:15:00,22.8,6.4,30.51,North,8,1.0,4.0,49,0.00,,,0.00,WUHU216DAVISWMX,2013-03-18 13:15:00,
2013-03-18 09:20:00,23.4,7.0,30.51,NW,320,0.0,3.0,49,0.00,,,0.00,WUHU216DAVISWMX,2013-03-18 13:20:00,
2013-03-18 09:25:00,24.1,8.5,30.51,NW,319,0.0,3.0,51,0.00,,,0.00,WUHU216DAVISWMX,2013-03-18 13:25:00,
2013-03-18 09:30:00,24.8,7.8,30.51,NW,321,2.0,3.0,48,0.00,,,0.00,WUHU216DAVISWMX,2013-03-18 13:30:00,
2013-03-18 09:35:00,25.1,8.5,30.51,ENE,78,2.0,3.0,49,0.00,,,0.00,WUHU216DAVISWMX,2013-03-18 13:35:00,
2013-03-18 09:40:00,25.7,7.6,30.50,SE,132,3.0,3.0,46,0.00,,,0.00,WUHU216DAVISWMX,2013-03-18 13:40:00,
2013-03-18 09:46:00,26.2,7.6,30.50,NE,42,3.0,3.0,45,0.00,,,0.00,WUHU216DAVISWMX,2013-03-18 13:46:00,
2013-03-18 09:51:00,26.4,6.2,30.50,NNE,19,3.0,4.0,42,0.00,,,0.00,WUHU216DAVISWMX,2013-03-18 13:51:00,
2013-03-18 09:56:00,26.6,5.9,30.50,NNE,19,0.0,4.0,41,0.00,,,0.00,WUHU216DAVISWMX,2013-03-18 13:56:00,
2013-03-18 10:01:00,27.0,5.7,30.49,NNW,335,3.0,6.0,40,0.00,,,0.00,WUHU216DAVISWMX,2013-03-18 14:01:00,
2013-03-18 10:06:00,27.2,6.4,30.50,East,82,1.0,6.0,41,0.00,,,0.00,WUHU216DAVISWMX,2013-03-18 14:06:00,
2013-03-18 10:11:00,27.5,6.1,30.50,ENE,66,1.0,3.0,40,0.00,,,0.00,WUHU216DAVISWMX,2013-03-18 14:11:00,
2013-03-18 10:16:00,27.6,6.8,30.50,NE,54,2.0,2.0,41,0.00,,,0.00,WUHU216DAVISWMX,2013-03-18 14:16:00,
2013-03-18 10:21:00,27.7,6.3,30.50,NE,53,0.0,3.0,40,0.00,,,0.00,WUHU216DAVISWMX,2013-03-18 14:21:00,
2013-03-18 10:26:00,27.9,5.9,30.49,NNW,327,3.0,4.0,39,0.00,,,0.00,WUHU216DAVISWMX,2013-03-18 14:26:00,
2013-03-18 10:31:00,28.1,6.1,30.49,North,0,0.0,4.0,39,0.00,,,0.00,WUHU216DAVISWMX,2013-03-18 14:31:00,
2013-03-18 10:36:00,28.0,6.6,30.49,ENE,73,0.0,3.0,40,0.00,,,0.00,WUHU216DAVISWMX,2013-03-18 14:36:00,
2013-03-18 10:41:00,28.2,6.8,30.49,East,87,1.0,3.0,40,0.00,,,0.00,WUHU216DAVISWMX,2013-03-18 14:41:00,
2013-03-18 10:46:00,28.6,7.7,30.49,ENE,78,1.0,4.0,41,0.00,,,0.00,WUHU216DAVISWMX,2013-03-18 14:46:00,
2013-03-18 10:51:00,29.0,8.0,30.49,SE,146,1.0,4.0,41,0.00,,,0.00,WUHU216DAVISWMX,2013-03-18 14:51:00,
2013-03-18 10:56:00,28.9,6.2,30.49,East,91,2.0,3.0,38,0.00,,,0.00,WUHU216DAVISWMX,2013-03-18 14:56:00,
2013-03-18 11:01:00,29.3,7.7,30.48,North,7,1.0,2.0,40,0.00,,,0.00,WUHU216DAVISWMX,2013-03-18 15:01:00,
2013-03-18 11:06:00,29.4,7.3,30.48,North,7,1.0,2.0,39,0.00,,,0.00,WUHU216DAVISWMX,2013-03-18 15:06:00,
2013-03-18 11:11:00,29.7,8.1,30.48,North,7,0.0,2.0,40,0.00,,,0.00,WUHU216DAVISWMX,2013-03-18 15:11:00,
2013-03-18 11:16:00,30.0,7.8,30.48,SE,139,0.0,4.0,39,0.00,,,0.00,WUHU216DAVISWMX,2013-03-18 15:16:00,
2013-03-18 11:21:00,29.9,7.1,30.48,ENE,63,1.0,4.0,38,0.00,,,0.00,WUHU216DAVISWMX,2013-03-18 15:21:00,
2013-03-18 11:26:00,29.9,7.7,30.48,NNW,327,2.0,4.0,39,0.00,,,0.00,WUHU216DAVISWMX,2013-03-18 15:26:00,
2013-03-18 11:31:00,30.2,8.0,30.48,NW,311,1.0,4.0,39,0.00,,,0.00,WUHU216DAVISWMX,2013-03-18 15:31:00,
2013-03-18 11:36:00,30.4,8.7,30.48,NW,311,0.0,2.0,40,0.00,,,0.00,WUHU216DAVISWMX,2013-03-18 15:36:00,
2013-03-18 11:41:00,30.6,8.9,30.47,NW,311,1.0,2.0,40,0.00,,,0.00,WUHU216DAVISWMX,2013-03-18 15:41:00,
2013-03-18 11:46:00,30.8,7.9,30.47,East,96,2.0,2.0,38,0.00,,,0.00,WUHU216DAVISWMX,2013-03-18 15:46:00,
2013-03-18 11:51:00,30.8,7.3,30.47,NE,34,0.0,2.0,37,0.00,,,0.00,WUHU216DAVISWMX,2013-03-18 15:51:00,
2013-03-18 11:56:00,31.1,8.8,30.47,NW,323,1.0,2.0,39,0.00,,,0.00,WUHU216DAVISWMX,2013-03-18 15:56:00,
2013-03-18 12:01:00,31.5,9.7,30.46,SE,143,1.0,2.0,40,0.00,,,0.00,WUHU216DAVISWMX,2013-03-18 16:01:00,
2013-03-18 12:06:00,31.8,9.4,30.46,SSW,206,1.0,4.0,39,0.00,,,0.00,WUHU216DAVISWMX,2013-03-18 16:06:00,
2013-03-18 12:11:00,31.9,9.5,30.46,WSW,245,1.0,5.0,39,0.00,,,0.00,WUHU216DAVISWMX,2013-03-18 16:11:00,
2013-03-18 12:16:00,32.2,9.2,30.46,SE,139,1.0,5.0,38,0.00,,,0.00,WUHU216DAVISWMX,2013-03-18 16:16:00,
2013-03-18 12:21:00,32.4,8.2,30.46,SSE,148,0.0,4.0,36,0.00,,,0.00,WUHU216DAVISWMX,2013-03-18 16:21:00,
2013-03-18 12:27:00,32.6,9.6,30.46,WSW,256,0.0,4.0,38,0.00,,,0.00,WUHU216DAVISWMX,2013-03-18 16:27:00,
2013-03-18 12:32:00,32.7,9.0,30.46,North,0,0.0,2.0,37,0.00,,,0.00,WUHU216DAVISWMX,2013-03-18 16:32:00,
2013-03-18 12:37:00,32.9,10.4,30.46,West,266,4.0,4.0,39,0.00,,,0.00,WUHU216DAVISWMX,2013-03-18 16:37:00,
2013-03-18 12:42:00,33.3,9.6,30.45,WSW,251,2.0,5.0,37,0.00,,,0.00,WUHU216DAVISWMX,2013-03-18 16:42:00,
2013-03-18 12:47:00,33.7,11.7,30.46,SW,232,3.0,5.0,40,0.00,,,0.00,WUHU216DAVISWMX,2013-03-18 16:47:00,
2013-03-18 12:52:00,34.0,9.6,30.46,West,277,1.0,5.0,36,0.00,,,0.00,WUHU216DAVISWMX,2013-03-18 16:52:00,
2013-03-18 12:57:00,34.1,10.9,30.45,WSW,249,1.0,4.0,38,0.00,,,0.00,WUHU216DAVISWMX,2013-03-18 16:57:00,
2013-03-18 13:02:00,34.5,10.0,30.45,WSW,237,1.0,5.0,36,0.00,,,0.00,WUHU216DAVISWMX,2013-03-18 17:02:00,
2013-03-18 13:07:00,34.6,9.5,30.45,SSE,165,0.0,5.0,35,0.00,,,0.00,WUHU216DAVISWMX,2013-03-18 17:07:00,
2013-03-18 13:12:00,34.7,8.9,30.45,North,353,1.0,2.0,34,0.00,,,0.00,WUHU216DAVISWMX,2013-03-18 17:12:00,
2013-03-18 13:17:00,34.8,10.3,30.44,North,350,1.0,2.0,36,0.00,,,0.00,WUHU216DAVISWMX,2013-03-18 17:17:00,
2013-03-18 13:22:00,34.8,9.0,30.44,East,93,2.0,4.0,34,0.00,,,0.00,WUHU216DAVISWMX,2013-03-18 17:22:00,
2013-03-18 13:27:00,34.8,9.7,30.44,East,86,0.0,5.0,35,0.00,,,0.00,WUHU216DAVISWMX,2013-03-18 17:27:00,
2013-03-18 13:32:00,34.9,10.4,30.43,ESE,118,2.0,5.0,36,0.00,,,0.00,WUHU216DAVISWMX,2013-03-18 17:32:00,
2013-03-18 13:37:00,35.2,11.3,30.43,SE,133,0.0,2.0,37,0.00,,,0.00,WUHU216DAVISWMX,2013-03-18 17:37:00,
2013-03-18 13:42:00,35.5,10.9,30.43,ENE,69,0.0,2.0,36,0.00,,,0.00,WUHU216DAVISWMX,2013-03-18 17:42:00,
2013-03-18 13:47:00,35.7,9.8,30.43,ENE,62,2.0,2.0,34,0.00,,,0.00,WUHU216DAVISWMX,2013-03-18 17:47:00,
2013-03-18 13:52:00,35.7,9.8,30.43,North,0,2.0,2.0,34,0.00,,,0.00,WUHU216DAVISWMX,2013-03-18 17:52:00,
2013-03-18 13:57:00,35.7,9.8,30.42,ENE,60,0.0,2.0,34,0.00,,,0.00,WUHU216DAVISWMX,2013-03-18 17:57:00,
2013-03-18 14:02:00,35.7,9.2,30.42,NE,49,0.0,2.0,33,0.00,,,0.00,WUHU216DAVISWMX,2013-03-18 18:02:00,
2013-03-18 14:07:00,36.1,9.5,30.42,North,354,0.0,2.0,33,0.00,,,0.00,WUHU216DAVISWMX,2013-03-18 18:07:00,
2013-03-18 14:12:00,36.3,12.3,30.41,NW,306,0.0,3.0,37,0.00,,,0.00,WUHU216DAVISWMX,2013-03-18 18:12:00,
2013-03-18 14:17:00,36.6,10.6,30.41,NW,316,0.0,3.0,34,0.00,,,0.00,WUHU216DAVISWMX,2013-03-18 18:17:00,
2013-03-18 14:22:00,36.6,10.6,30.40,South,171,0.0,3.0,34,0.00,,,0.00,WUHU216DAVISWMX,2013-03-18 18:22:00,
2013-03-18 14:27:00,36.9,10.9,30.40,SE,139,0.0,4.0,34,0.00,,,0.00,WUHU216DAVISWMX,2013-03-18 18:27:00,
2013-03-18 14:32:00,37.1,10.4,30.40,NE,45,0.0,4.0,33,0.00,,,0.00,WUHU216DAVISWMX,2013-03-18 18:32:00,
2013-03-18 14:37:00,37.3,11.2,30.39,South,180,0.0,2.0,34,0.00,,,0.00,WUHU216DAVISWMX,2013-03-18 18:37:00,
2013-03-18 14:42:00,37.4,12.6,30.39,West,276,4.0,5.0,36,0.00,,,0.00,WUHU216DAVISWMX,2013-03-18 18:42:00,
2013-03-18 14:47:00,37.6,12.8,30.39,WSW,256,0.0,6.0,36,0.00,,,0.00,WUHU216DAVISWMX,2013-03-18 18:47:00,
2013-03-18 14:52:00,37.5,12.1,30.39,South,184,0.0,6.0,35,0.00,,,0.00,WUHU216DAVISWMX,2013-03-18 18:52:00,
2013-03-18 14:57:00,37.7,12.3,30.39,ENE,78,2.0,4.0,35,0.00,,,0.00,WUHU216DAVISWMX,2013-03-18 18:57:00,
2013-03-18 15:02:00,37.5,10.7,30.39,SE,145,1.0,5.0,33,0.00,,,0.00,WUHU216DAVISWMX,2013-03-18 19:02:00,
2013-03-18 15:07:00,37.5,11.4,30.39,WNW,298,0.0,5.0,34,0.00,,,0.00,WUHU216DAVISWMX,2013-03-18 19:07:00,
2013-03-18 15:12:00,37.6,11.5,30.39,NW,305,1.0,4.0,34,0.00,,,0.00,WUHU216DAVISWMX,2013-03-18 19:12:00,
2013-03-18 15:17:00,37.5,10.7,30.38,NW,314,0.0,4.0,33,0.00,,,0.00,WUHU216DAVISWMX,2013-03-18 19:17:00,
2013-03-18 15:22:00,37.6,11.5,30.38,SE,139,1.0,3.0,34,0.00,,,0.00,WUHU216DAVISWMX,2013-03-18 19:22:00,
2013-03-18 15:27:00,37.6,10.8,30.38,SSE,164,0.0,4.0,33,0.00,,,0.00,WUHU216DAVISWMX,2013-03-18 19:27:00,
2013-03-18 15:32:00,37.5,10.7,30.37,WSW,248,0.0,4.0,33,0.00,,,0.00,WUHU216DAVISWMX,2013-03-18 19:32:00,
2013-03-18 15:37:00,37.5,12.1,30.37,WSW,237,3.0,3.0,35,0.00,,,0.00,WUHU216DAVISWMX,2013-03-18 19:37:00,
2013-03-18 15:42:00,37.4,11.3,30.37,West,261,5.0,5.0,34,0.00,,,0.00,WUHU216DAVISWMX,2013-03-18 19:42:00,
2013-03-18 15:47:00,37.4,11.3,30.37,WSW,258,0.0,5.0,34,0.00,,,0.00,WUHU216DAVISWMX,2013-03-18 19:47:00,
2013-03-18 15:52:00,37.5,12.1,30.37,WSW,247,3.0,4.0,35,0.00,,,0.00,WUHU216DAVISWMX,2013-03-18 19:52:00,
2013-03-18 15:57:00,37.5,10.7,30.37,SE,142,0.0,3.0,33,0.00,,,0.00,WUHU216DAVISWMX,2013-03-18 19:57:00,
2013-03-18 16:02:00,37.4,10.7,30.37,SE,142,3.0,4.0,33,0.00,,,0.00,WUHU216DAVISWMX,2013-03-18 20:02:00,
2013-03-18 16:08:00,37.3,10.6,30.37,WSW,253,1.0,4.0,33,0.00,,,0.00,WUHU216DAVISWMX,2013-03-18 20:08:00,
2013-03-18 16:13:00,37.3,11.2,30.37,West,260,0.0,3.0,34,0.00,,,0.00,WUHU216DAVISWMX,2013-03-18 20:13:00,
2013-03-18 16:18:00,37.3,10.6,30.37,WSW,257,0.0,3.0,33,0.00,,,0.00,WUHU216DAVISWMX,2013-03-18 20:18:00,
2013-03-18 16:23:00,37.2,10.5,30.36,West,262,1.0,1.0,33,0.00,,,0.00,WUHU216DAVISWMX,2013-03-18 20:23:00,
2013-03-18 16:28:00,37.0,9.6,30.36,ESE,119,0.0,4.0,32,0.00,,,0.00,WUHU216DAVISWMX,2013-03-18 20:28:00,
2013-03-18 16:33:00,37.1,10.4,30.35,ESE,119,0.0,4.0,33,0.00,,,0.00,WUHU216DAVISWMX,2013-03-18 20:33:00,
2013-03-18 16:38:00,37.1,10.4,30.35,ESE,119,0.0,2.0,33,0.00,,,0.00,WUHU216DAVISWMX,2013-03-18 20:38:00,
2013-03-18 16:43:00,37.1,11.1,30.35,SSW,208,0.0,1.0,34,0.00,,,0.00,WUHU216DAVISWMX,2013-03-18 20:43:00,
2013-03-18 16:48:00,37.0,10.3,30.34,WSW,245,0.0,3.0,33,0.00,,,0.00,WUHU216DAVISWMX,2013-03-18 20:48:00,
2013-03-18 16:53:00,37.0,11.6,30.34,WSW,245,0.0,3.0,35,0.00,,,0.00,WUHU216DAVISWMX,2013-03-18 20:53:00,
2013-03-18 16:58:00,36.9,10.9,30.34,WSW,257,0.0,3.0,34,0.00,,,0.00,WUHU216DAVISWMX,2013-03-18 20:58:00,
2013-03-18 17:03:00,36.8,10.8,30.34,SSW,212,0.0,3.0,34,0.00,,,0.00,WUHU216DAVISWMX,2013-03-18 21:03:00,
2013-03-18 17:08:00,36.7,10.0,30.34,SSW,212,0.0,1.0,33,0.00,,,0.00,WUHU216DAVISWMX,2013-03-18 21:08:00,
2013-03-18 17:13:00,36.7,11.4,30.34,SE,140,0.0,2.0,35,0.00,,,0.00,WUHU216DAVISWMX,2013-03-18 21:13:00,
2013-03-18 17:18:00,36.7,11.4,30.33,SE,140,0.0,2.0,35,0.00,,,0.00,WUHU216DAVISWMX,2013-03-18 21:18:00,
2013-03-18 17:23:00,36.6,11.9,30.33,WSW,246,0.0,0.0,36,0.00,,,0.00,WUHU216DAVISWMX,2013-03-18 21:23:00,
2013-03-18 17:28:00,36.5,11.8,30.33,SE,135,1.0,1.0,36,0.00,,,0.00,WUHU216DAVISWMX,2013-03-18 21:28:00,
2013-03-18 17:33:00,36.5,11.2,30.33,SSE,168,0.0,1.0,35,0.00,,,0.00,WUHU216DAVISWMX,2013-03-18 21:33:00,
2013-03-18 17:38:00,36.4,10.4,30.33,SSE,168,0.0,1.0,34,0.00,,,0.00,WUHU216DAVISWMX,2013-03-18 21:38:00,
2013-03-18 17:43:00,36.3,11.0,30.33,SSE,168,0.0,1.0,35,0.00,,,0.00,WUHU216DAVISWMX,2013-03-18 21:43:00,
2013-03-18 17:48:00,36.3,11.0,30.33,SSE,168,0.0,0.0,35,0.00,,,0.00,WUHU216DAVISWMX,2013-03-18 21:48:00,
2013-03-18 17:53:00,36.2,9.6,30.33,SSE,168,0.0,0.0,33,0.00,,,0.00,WUHU216DAVISWMX,2013-03-18 21:53:00,
2013-03-18 17:58:00,36.1,10.2,30.33,SSE,168,0.0,0.0,34,0.00,,,0.00,WUHU216DAVISWMX,2013-03-18 21:58:00,
2013-03-18 18:03:00,36.1,12.1,30.33,SSE,168,0.0,0.0,37,0.00,,,0.00,WUHU216DAVISWMX,2013-03-18 22:03:00,
2013-03-18 18:08:00,36.0,11.4,30.33,SW,222,3.0,3.0,36,0.00,,,0.00,WUHU216DAVISWMX,2013-03-18 22:08:00,
2013-03-18 18:13:00,35.9,11.3,30.33,SW,225,1.0,3.0,36,0.00,,,0.00,WUHU216DAVISWMX,2013-03-18 22:13:00,
2013-03-18 18:18:00,35.8,11.2,30.33,SW,225,0.0,1.0,36,0.00,,,0.00,WUHU216DAVISWMX,2013-03-18 22:18:00,
2013-03-18 18:23:00,35.7,12.3,30.33,SW,225,0.0,1.0,38,0.00,,,0.00,WUHU216DAVISWMX,2013-03-18 22:23:00,
2013-03-18 18:28:00,35.7,12.9,30.33,SW,225,0.0,0.0,39,0.00,,,0.00,WUHU216DAVISWMX,2013-03-18 22:28:00,
2013-03-18 18:33:00,35.5,12.2,30.32,SW,225,0.0,0.0,38,0.00,,,0.00,WUHU216DAVISWMX,2013-03-18 22:33:00,
2013-03-18 18:38:00,35.5,12.8,30.33,SW,225,0.0,0.0,39,0.00,,,0.00,WUHU216DAVISWMX,2013-03-18 22:38:00,
2013-03-18 18:43:00,35.3,12.6,30.33,SW,225,0.0,0.0,39,0.00,,,0.00,WUHU216DAVISWMX,2013-03-18 22:43:00,
2013-03-18 18:48:00,35.3,13.7,30.33,SW,225,0.0,0.0,41,0.00,,,0.00,WUHU216DAVISWMX,2013-03-18 22:48:00,
2013-03-18 18:53:00,35.2,13.7,30.33,SW,225,0.0,0.0,41,0.00,,,0.00,WUHU216DAVISWMX,2013-03-18 22:53:00,
2013-03-18 18:58:00,35.1,14.1,30.33,SW,225,0.0,0.0,42,0.00,,,0.00,WUHU216DAVISWMX,2013-03-18 22:58:00,
2013-03-18 19:03:00,35.0,14.6,30.33,SW,225,0.0,0.0,43,0.00,,,0.00,WUHU216DAVISWMX,2013-03-18 23:03:00,
2013-03-18 19:08:00,34.9,13.9,30.32,SW,225,0.0,0.0,42,0.00,,,0.00,WUHU216DAVISWMX,2013-03-18 23:08:00,
2013-03-18 19:13:00,34.8,13.3,30.32,SW,225,0.0,0.0,41,0.00,,,0.00,WUHU216DAVISWMX,2013-03-18 23:13:00,
2013-03-18 19:18:00,34.7,14.9,30.32,SW,225,0.0,0.0,44,0.00,,,0.00,WUHU216DAVISWMX,2013-03-18 23:18:00,
2013-03-18 19:23:00,34.7,14.9,30.32,SW,225,0.0,0.0,44,0.00,,,0.00,WUHU216DAVISWMX,2013-03-18 23:23:00,
2013-03-18 19:28:00,34.6,14.8,30.32,SW,225,0.0,0.0,44,0.00,,,0.00,WUHU216DAVISWMX,2013-03-18 23:28:00,
2013-03-18 19:33:00,34.6,14.8,30.31,SE,142,2.0,2.0,44,0.00,,,0.00,WUHU216DAVISWMX,2013-03-18 23:33:00,
2013-03-18 19:38:00,34.4,15.6,30.31,SE,142,0.0,2.0,46,0.00,,,0.00,WUHU216DAVISWMX,2013-03-18 23:38:00,
2013-03-18 19:43:00,34.2,15.4,30.31,SE,142,0.0,2.0,46,0.00,,,0.00,WUHU216DAVISWMX,2013-03-18 23:43:00,
2013-03-18 19:48:00,34.2,16.5,30.31,SE,140,0.0,4.0,48,0.00,,,0.00,WUHU216DAVISWMX,2013-03-18 23:48:00,
2013-03-18 19:53:00,34.1,17.3,30.31,SE,137,0.0,4.0,50,0.00,,,0.00,WUHU216DAVISWMX,2013-03-18 23:53:00,
2013-03-18 19:58:00,34.1,18.3,30.31,SSE,149,0.0,3.0,52,0.00,,,0.00,WUHU216DAVISWMX,2013-03-18 23:58:00,
2013-03-18 20:03:00,34.1,19.2,30.31,SE,126,0.0,3.0,54,0.00,,,0.00,WUHU216DAVISWMX,2013-03-19 00:03:00,
2013-03-18 20:08:00,34.0,19.5,30.31,SE,140,1.0,3.0,55,0.00,,,0.00,WUHU216DAVISWMX,2013-03-19 00:08:00,
2013-03-18 20:13:00,33.9,19.9,30.31,SE,138,0.0,3.0,56,0.00,,,0.00,WUHU216DAVISWMX,2013-03-19 00:13:00,
2013-03-18 20:18:00,33.8,20.2,30.31,SE,137,0.0,1.0,57,0.00,,,0.00,WUHU216DAVISWMX,2013-03-19 00:18:00,
2013-03-18 20:23:00,33.6,21.2,30.30,ENE,69,1.0,4.0,60,0.00,,,0.00,WUHU216DAVISWMX,2013-03-19 00:23:00,
2013-03-18 20:28:00,33.6,21.2,30.30,ESE,120,0.0,4.0,60,0.00,,,0.00,WUHU216DAVISWMX,2013-03-19 00:28:00,
2013-03-18 20:33:00,33.5,21.5,30.30,SSE,157,4.0,4.0,61,0.00,,,0.00,WUHU216DAVISWMX,2013-03-19 00:33:00,
2013-03-18 20:38:00,33.4,21.4,30.30,South,186,1.0,4.0,61,0.00,,,0.00,WUHU216DAVISWMX,2013-03-19 00:38:00,
2013-03-18 20:43:00,33.5,21.9,30.30,ESE,121,0.0,4.0,62,0.00,,,0.00,WUHU216DAVISWMX,2013-03-19 00:43:00,
2013-03-18 20:48:00,33.4,22.2,30.30,SSE,163,0.0,4.0,63,0.00,,,0.00,WUHU216DAVISWMX,2013-03-19 00:48:00,
2013-03-18 20:53:00,33.3,22.1,30.30,South,189,2.0,4.0,63,0.00,,,0.00,WUHU216DAVISWMX,2013-03-19 00:53:00,
2013-03-18 20:58:00,33.3,22.1,30.30,SE,136,1.0,4.0,63,0.00,,,0.00,WUHU216DAVISWMX,2013-03-19 00:58:00,
2013-03-18 21:03:00,33.2,22.0,30.30,SSE,157,0.0,3.0,63,0.00,,,0.00,WUHU216DAVISWMX,2013-03-19 01:03:00,
2013-03-18 21:08:00,33.2,22.0,30.30,SSE,154,0.0,3.0,63,0.00,,,0.00,WUHU216DAVISWMX,2013-03-19 01:08:00,
2013-03-18 21:13:00,33.1,21.9,30.30,SSE,154,0.0,1.0,63,0.00,,,0.00,WUHU216DAVISWMX,2013-03-19 01:13:00,
2013-03-18 21:18:00,33.1,22.3,30.30,SSE,155,0.0,2.0,64,0.00,,,0.00,WUHU216DAVISWMX,2013-03-19 01:18:00,
2013-03-18 21:23:00,33.1,22.3,30.30,SSE,153,0.0,2.0,64,0.00,,,0.00,WUHU216DAVISWMX,2013-03-19 01:23:00,
2013-03-18 21:28:00,33.0,22.2,30.30,SSE,153,0.0,1.0,64,0.00,,,0.00,WUHU216DAVISWMX,2013-03-19 01:28:00,
2013-03-18 21:33:00,33.0,22.6,30.30,SSE,152,0.0,0.0,65,0.00,,,0.00,WUHU216DAVISWMX,2013-03-19 01:33:00,
2013-03-18 21:38:00,33.0,22.9,30.30,SSE,152,0.0,0.0,66,0.00,,,0.00,WUHU216DAVISWMX,2013-03-19 01:38:00,
2013-03-18 21:43:00,32.9,22.9,30.30,WSW,239,0.0,3.0,66,0.00,,,0.00,WUHU216DAVISWMX,2013-03-19 01:43:00,
2013-03-18 21:48:00,32.8,22.4,30.30,SSW,210,0.0,3.0,65,0.00,,,0.00,WUHU216DAVISWMX,2013-03-19 01:48:00,
2013-03-18 21:53:00,32.7,22.7,30.30,West,262,0.0,2.0,66,0.00,,,0.00,WUHU216DAVISWMX,2013-03-19 01:53:00,
2013-03-18 21:58:00,32.4,23.8,30.31,WNW,291,1.0,10.0,70,0.00,,,0.00,WUHU216DAVISWMX,2013-03-19 01:58:00,
2013-03-18 22:03:00,32.2,24.2,30.31,WSW,254,0.0,10.0,72,0.00,,,0.00,WUHU216DAVISWMX,2013-03-19 02:03:00,
2013-03-18 22:08:00,32.1,25.1,30.32,SW,225,2.0,6.0,75,0.00,,,0.00,WUHU216DAVISWMX,2013-03-19 02:08:00,
2013-03-18 22:13:00,31.9,25.5,30.32,SSE,161,0.0,2.0,77,0.00,,,0.00,WUHU216DAVISWMX,2013-03-19 02:13:00,
2013-03-18 22:18:00,31.7,25.6,30.32,SSE,160,0.0,1.0,78,0.00,,,0.00,WUHU216DAVISWMX,2013-03-19 02:18:00,
2013-03-18 22:23:00,31.6,25.8,30.32,South,173,0.0,4.0,79,0.00,,,0.00,WUHU216DAVISWMX,2013-03-19 02:23:00,
2013-03-18 22:28:00,31.5,26.0,30.32,SSW,193,0.0,4.0,80,0.00,,,0.00,WUHU216DAVISWMX,2013-03-19 02:28:00,
2013-03-18 22:33:00,31.4,26.0,30.32,SSW,193,0.0,2.0,80,0.00,,,0.00,WUHU216DAVISWMX,2013-03-19 02:33:00,
2013-03-18 22:38:00,31.4,26.2,30.32,SSW,193,0.0,1.0,81,0.00,,,0.00,WUHU216DAVISWMX,2013-03-19 02:38:00,
2013-03-18 22:44:00,31.4,26.2,30.31,SSW,192,0.0,2.0,81,0.00,,,0.00,WUHU216DAVISWMX,2013-03-19 02:44:00,
2013-03-18 22:49:00,31.4,26.5,30.31,SSW,193,0.0,2.0,82,0.00,,,0.00,WUHU216DAVISWMX,2013-03-19 02:49:00,
2013-03-18 22:54:00,31.3,26.7,30.31,SSW,193,0.0,0.0,83,0.00,,,0.00,WUHU216DAVISWMX,2013-03-19 02:54:00,
2013-03-18 22:59:00,31.3,26.4,30.31,SSW,193,0.0,0.0,82,0.00,,,0.00,WUHU216DAVISWMX,2013-03-19 02:59:00,
2013-03-18 23:04:00,31.2,26.6,30.30,SSW,192,0.0,1.0,83,0.00,,,0.00,WUHU216DAVISWMX,2013-03-19 03:04:00,
2013-03-18 23:09:00,31.2,26.9,30.31,SSW,193,0.0,1.0,84,0.00,,,0.00,WUHU216DAVISWMX,2013-03-19 03:09:00,
2013-03-18 23:14:00,31.1,26.8,30.31,SSW,192,0.0,2.0,84,0.00,,,0.00,WUHU216DAVISWMX,2013-03-19 03:14:00,
2013-03-18 23:19:00,31.0,27.0,30.30,SSW,192,0.0,2.0,85,0.00,,,0.00,WUHU216DAVISWMX,2013-03-19 03:19:00,
2013-03-18 23:24:00,30.9,26.9,30.30,SSW,192,0.0,1.0,85,0.00,,,0.00,WUHU216DAVISWMX,2013-03-19 03:24:00,
2013-03-18 23:29:00,30.8,27.1,30.30,SSW,192,0.0,1.0,86,0.00,,,0.00,WUHU216DAVISWMX,2013-03-19 03:29:00,
2013-03-18 23:34:00,30.8,27.1,30.30,SE,129,1.0,3.0,86,0.00,,,0.00,WUHU216DAVISWMX,2013-03-19 03:34:00,
2013-03-18 23:39:00,30.8,27.1,30.30,SE,139,0.0,4.0,86,0.00,,,0.00,WUHU216DAVISWMX,2013-03-19 03:39:00,
2013-03-18 23:44:00,30.6,26.9,30.30,East,88,0.0,4.0,86,0.00,,,0.00,WUHU216DAVISWMX,2013-03-19 03:44:00,
2013-03-18 23:49:00,30.4,27.0,30.30,SE,124,0.0,4.0,87,0.00,,,0.00,WUHU216DAVISWMX,2013-03-19 03:49:00,
2013-03-18 23:54:00,30.4,26.7,30.29,SE,141,1.0,4.0,86,0.00,,,0.00,WUHU216DAVISWMX,2013-03-19 03:54:00,
2013-03-18 23:59:00,30.4,26.7,30.29,SE,141,0.0,3.0,86,0.00,,,0.00,WUHU216DAVISWMX,2013-03-19 03:59:00,